Time;durP1;ratioP1;P1;durP2;ratioP2;P2;SDS_P1;SDS_P2;PMS_P1;PMS_P2;Temp;Humidity;BMP_temperature;BMP_pressure;BME280_temperature;BME280_humidity;BME280_pressure;Samples;Min_cycle;Max_cycle;Signal;HPM_P1;HPM_P2
2021/10/03 00:00:50;;;;;;;5.28;2.38;;;15.60;99.90;;;;;;5035126;28;20450;-68
2021/10/03 00:03:19;;;;;;;4.30;2.42;;;15.60;99.90;;;;;;5020544;28;20106;-68
2021/10/03 00:05:47;;;;;;;2.25;1.48;;;15.60;99.90;;;;;;5038646;28;20467;-68
2021/10/03 00:08:14;;;;;;;1.83;1.73;;;15.70;99.90;;;;;;5020588;28;20045;-68
2021/10/03 00:10:40;;;;;;;4.35;1.95;;;15.60;99.90;;;;;;5043902;28;20047;-68
2021/10/03 00:13:06;;;;;;;1.83;1.30;;;15.70;99.90;;;;;;5036418;28;20044;-68
2021/10/03 00:15:34;;;;;;;2.65;1.25;;;15.70;99.90;;;;;;5039596;28;20037;-68
2021/10/03 00:18:00;;;;;;;1.50;1.10;;;15.70;99.90;;;;;;5037714;28;20479;-68
2021/10/03 00:20:26;;;;;;;2.35;1.77;;;15.80;99.90;;;;;;5039582;28;20372;-68
2021/10/03 00:22:52;;;;;;;1.83;1.20;;;15.80;99.90;;;;;;5039026;28;20465;-68
2021/10/03 00:25:17;;;;;;;2.25;1.00;;;15.80;99.90;;;;;;5041336;28;20037;-68
2021/10/03 00:27:44;;;;;;;1.25;0.80;;;15.80;99.90;;;;;;5025813;28;20052;-68
2021/10/03 00:30:13;;;;;;;2.05;0.90;;;15.90;99.90;;;;;;5027054;28;20410;-68
2021/10/03 00:32:39;;;;;;;1.55;0.70;;;15.90;99.90;;;;;;5025843;28;20156;-68
2021/10/03 00:35:05;;;;;;;3.58;0.70;;;15.90;99.90;;;;;;5037062;28;20068;-68
2021/10/03 00:37:31;;;;;;;1.55;0.90;;;15.90;99.90;;;;;;5024324;28;20044;-68
2021/10/03 00:39:57;;;;;;;1.15;0.77;;;16.00;99.90;;;;;;5040446;28;20042;-68
2021/10/03 00:42:22;;;;;;;1.15;0.52;;;16.00;99.90;;;;;;5022796;28;20048;-68
2021/10/03 00:44:48;;;;;;;1.00;0.45;;;16.00;99.90;;;;;;5033367;28;20045;-68
2021/10/03 00:47:15;;;;;;;1.40;0.80;;;16.10;99.90;;;;;;5021107;28;20125;-68
2021/10/03 00:49:43;;;;;;;7.90;1.10;;;16.10;99.90;;;;;;5054527;28;20045;-68
2021/10/03 00:52:09;;;;;;;4.38;0.93;;;16.10;99.90;;;;;;5039485;28;20952;-68
2021/10/03 00:54:35;;;;;;;1.20;0.45;;;16.10;99.90;;;;;;5019428;28;21562;-68
2021/10/03 00:57:02;;;;;;;0.60;0.40;;;16.20;99.90;;;;;;5023169;28;20487;-68
2021/10/03 00:59:28;;;;;;;1.00;0.50;;;16.20;99.90;;;;;;5041486;28;20522;-68
2021/10/03 01:01:54;;;;;;;1.10;0.50;;;16.10;99.90;;;;;;5024004;28;20037;-68
2021/10/03 01:04:20;;;;;;;2.72;0.50;;;16.20;99.90;;;;;;5029032;28;20508;-68
2021/10/03 01:06:46;;;;;;;4.78;0.50;;;16.20;99.90;;;;;;5022919;28;20047;-68
2021/10/03 01:09:12;;;;;;;0.70;0.40;;;16.20;99.90;;;;;;5017632;28;20164;-68
2021/10/03 01:11:38;;;;;;;0.93;0.73;;;16.20;99.90;;;;;;5034136;28;20037;-68
2021/10/03 01:14:06;;;;;;;0.85;0.50;;;16.20;99.90;;;;;;5022135;28;20044;-68
2021/10/03 01:16:32;;;;;;;1.27;0.60;;;16.20;99.90;;;;;;5038372;28;20041;-68
2021/10/03 01:18:57;;;;;;;1.58;0.60;;;16.20;99.90;;;;;;5035165;28;20087;-69
2021/10/03 01:21:24;;;;;;;2.33;0.40;;;16.20;99.90;;;;;;5025191;28;20045;-68
2021/10/03 01:23:53;;;;;;;1.05;0.50;;;16.20;99.90;;;;;;5042556;28;20040;-68
2021/10/03 01:26:19;;;;;;;0.95;0.35;;;16.20;99.90;;;;;;5038489;28;20147;-68
2021/10/03 01:28:45;;;;;;;0.45;0.32;;;16.20;99.90;;;;;;5021486;28;20146;-68
2021/10/03 01:31:12;;;;;;;2.60;0.45;;;16.20;99.90;;;;;;5024175;28;20123;-68
2021/10/03 01:33:39;;;;;;;1.73;0.70;;;16.20;99.90;;;;;;5023425;28;20155;-68
2021/10/03 01:36:06;;;;;;;1.05;0.50;;;16.20;99.90;;;;;;5023636;28;20067;-68
2021/10/03 01:38:33;;;;;;;1.83;0.40;;;16.20;99.90;;;;;;5036182;28;20037;-68
2021/10/03 01:41:06;;;;;;;3.42;0.80;;;16.20;99.90;;;;;;5043897;28;20037;-68
2021/10/03 01:43:33;;;;;;;1.25;0.57;;;16.20;99.90;;;;;;5037725;28;20184;-68
2021/10/03 01:45:59;;;;;;;0.75;0.30;;;16.20;99.90;;;;;;5025724;28;20163;-68
2021/10/03 01:48:25;;;;;;;0.80;0.40;;;16.20;99.90;;;;;;5038758;28;20045;-68
2021/10/03 01:51:06;;;;;;;1.00;0.70;;;16.20;99.90;;;;;;5036595;28;20082;-68
2021/10/03 01:53:38;;;;;;;1.33;0.57;;;16.20;99.90;;;;;;5011232;28;20049;-68
2021/10/03 01:56:05;;;;;;;1.17;0.47;;;16.20;99.90;;;;;;5009511;28;20048;-68
2021/10/03 01:58:35;;;;;;;1.45;0.70;;;16.20;99.90;;;;;;5042777;28;20041;-68
2021/10/03 02:01:06;;;;;;;1.52;0.45;;;16.20;99.90;;;;;;5037460;28;20041;-68
2021/10/03 02:03:31;;;;;;;0.77;0.40;;;16.20;99.90;;;;;;5033072;28;20475;-68
2021/10/03 02:05:57;;;;;;;1.70;0.40;;;16.20;99.90;;;;;;5038529;28;20048;-68
2021/10/03 02:08:23;;;;;;;0.90;0.47;;;16.10;99.90;;;;;;5023018;28;20060;-68
2021/10/03 02:10:51;;;;;;;0.55;0.40;;;16.20;99.90;;;;;;5038243;28;22237;-68
2021/10/03 02:13:18;;;;;;;1.20;0.43;;;16.20;99.90;;;;;;5018896;28;21498;-68
2021/10/03 02:15:45;;;;;;;0.85;0.40;;;16.20;99.90;;;;;;5036459;28;20116;-68
2021/10/03 02:18:13;;;;;;;0.98;0.50;;;16.20;99.90;;;;;;5035798;28;20037;-68
2021/10/03 02:20:41;;;;;;;1.65;0.55;;;16.20;99.90;;;;;;5038498;28;20072;-68
2021/10/03 02:23:13;;;;;;;3.13;0.70;;;16.20;99.90;;;;;;5017532;28;20041;-68
2021/10/03 02:25:44;;;;;;;5.25;1.67;;;16.10;99.90;;;;;;5028786;28;20040;-68
2021/10/03 02:28:18;;;;;;;0.73;0.63;;;16.10;99.90;;;;;;5041954;28;20331;-69
2021/10/03 02:30:46;;;;;;;1.20;0.75;;;16.10;99.90;;;;;;5039300;28;20041;-68
2021/10/03 02:33:13;;;;;;;1.35;0.52;;;16.20;99.90;;;;;;5037817;28;20596;-68
2021/10/03 02:35:39;;;;;;;1.30;0.63;;;16.20;99.90;;;;;;5028620;28;20052;-68
2021/10/03 02:38:09;;;;;;;1.95;0.70;;;16.20;99.90;;;;;;5045893;28;20121;-68
2021/10/03 02:40:36;;;;;;;2.63;0.40;;;16.20;99.90;;;;;;5048490;28;20053;-68
2021/10/03 02:43:05;;;;;;;2.08;0.40;;;16.20;99.90;;;;;;5044570;28;20055;-69
2021/10/03 02:45:41;;;;;;;1.40;0.40;;;16.20;99.90;;;;;;5028672;28;20418;-68
2021/10/03 02:48:07;;;;;;;1.27;0.38;;;16.20;99.90;;;;;;5041144;28;20098;-68
2021/10/03 02:50:33;;;;;;;0.82;0.30;;;16.20;99.90;;;;;;5027490;28;20048;-69
2021/10/03 02:52:59;;;;;;;0.50;0.30;;;16.20;99.90;;;;;;5023135;28;20033;-68
2021/10/03 02:55:25;;;;;;;2.83;0.50;;;16.20;99.90;;;;;;5026656;28;20162;-68
2021/10/03 02:57:50;;;;;;;0.47;0.30;;;16.20;99.90;;;;;;5025212;28;20507;-68
2021/10/03 03:00:25;;;;;;;1.15;0.30;;;16.20;99.90;;;;;;5028029;28;20056;-68
2021/10/03 03:02:51;;;;;;;0.60;0.20;;;16.20;99.90;;;;;;5043002;28;20073;-68
2021/10/03 03:05:16;;;;;;;1.15;0.40;;;16.20;99.90;;;;;;5045491;28;20072;-68
2021/10/03 03:07:42;;;;;;;0.50;0.30;;;16.30;99.90;;;;;;5040857;28;20045;-68
2021/10/03 03:10:09;;;;;;;1.08;0.30;;;16.20;99.90;;;;;;5049107;28;20041;-68
2021/10/03 03:12:36;;;;;;;2.30;0.30;;;16.30;99.90;;;;;;5029717;28;20049;-68
2021/10/03 03:15:08;;;;;;;1.95;0.40;;;16.30;99.90;;;;;;5049274;28;20057;-68
2021/10/03 03:17:34;;;;;;;1.15;0.40;;;16.30;99.90;;;;;;5025497;28;20340;-68
2021/10/03 03:20:00;;;;;;;4.68;0.50;;;16.30;99.90;;;;;;5052469;28;20110;-69
2021/10/03 03:22:26;;;;;;;2.03;0.40;;;16.30;99.90;;;;;;5050554;28;20053;-69
2021/10/03 03:24:52;;;;;;;0.93;0.45;;;16.20;99.90;;;;;;5030130;28;20048;-69
2021/10/03 03:27:18;;;;;;;1.13;0.10;;;16.10;99.90;;;;;;5043810;28;20041;-68
2021/10/03 03:29:44;;;;;;;3.22;0.55;;;16.10;99.90;;;;;;5047878;28;20399;-68
2021/10/03 03:32:10;;;;;;;1.58;0.17;;;16.00;99.90;;;;;;5029175;28;20072;-69
2021/10/03 03:34:36;;;;;;;3.42;0.57;;;16.00;99.90;;;;;;5035465;28;20051;-69
2021/10/03 03:37:02;;;;;;;0.63;0.20;;;15.90;99.90;;;;;;5048838;28;20048;-68
2021/10/03 03:39:29;;;;;;;2.20;0.15;;;15.90;99.90;;;;;;5043497;28;20071;-68
2021/10/03 03:41:55;;;;;;;1.52;0.20;;;15.80;99.90;;;;;;5025345;28;20483;-68
2021/10/03 03:44:21;;;;;;;4.03;0.40;;;15.80;99.90;;;;;;5029990;28;20053;-68
2021/10/03 03:46:47;;;;;;;1.58;0.20;;;15.80;99.90;;;;;;5032825;28;20052;-68
2021/10/03 03:49:12;;;;;;;2.22;0.30;;;15.70;99.90;;;;;;5050447;28;20051;-68
2021/10/03 03:51:38;;;;;;;3.08;0.20;;;15.70;99.90;;;;;;5039493;28;20048;-68
2021/10/03 03:54:04;;;;;;;1.98;0.28;;;15.70;99.90;;;;;;5051215;28;20036;-68
2021/10/03 03:56:29;;;;;;;1.58;0.30;;;15.60;99.90;;;;;;5030504;28;20049;-68
2021/10/03 03:58:55;;;;;;;3.22;0.70;;;15.60;99.90;;;;;;5047403;28;20099;-68
2021/10/03 04:01:20;;;;;;;0.73;0.30;;;15.60;99.90;;;;;;5030309;28;20047;-68
2021/10/03 04:03:47;;;;;;;0.73;0.20;;;15.50;99.90;;;;;;5031214;28;20119;-68
2021/10/03 04:06:13;;;;;;;0.43;0.20;;;15.50;99.90;;;;;;5047148;28;20084;-68
2021/10/03 04:08:38;;;;;;;0.85;0.38;;;15.50;99.90;;;;;;5031172;28;20032;-69
2021/10/03 04:11:05;;;;;;;1.25;0.20;;;15.40;99.90;;;;;;5025450;28;20388;-69
2021/10/03 04:13:31;;;;;;;1.17;0.22;;;15.40;99.90;;;;;;5045484;28;20167;-69
2021/10/03 04:15:57;;;;;;;0.80;0.20;;;15.30;99.90;;;;;;5047891;28;20131;-69
2021/10/03 04:18:23;;;;;;;1.08;0.20;;;15.20;99.90;;;;;;5049242;28;20551;-69
2021/10/03 04:20:48;;;;;;;1.25;0.43;;;15.20;99.90;;;;;;5030933;28;20580;-69
2021/10/03 04:23:14;;;;;;;1.75;0.20;;;15.20;99.90;;;;;;5031682;28;20053;-69
2021/10/03 04:25:40;;;;;;;1.20;0.20;;;15.00;99.90;;;;;;5047472;28;20079;-68
2021/10/03 04:28:06;;;;;;;2.60;0.30;;;15.00;99.90;;;;;;5047915;28;20041;-69
2021/10/03 04:30:32;;;;;;;0.77;0.10;;;15.00;99.90;;;;;;5030656;28;20094;-68
2021/10/03 04:32:57;;;;;;;2.58;0.20;;;14.90;99.90;;;;;;5023944;28;20047;-69
2021/10/03 04:35:23;;;;;;;2.00;0.20;;;14.90;99.90;;;;;;5027252;28;20067;-69
2021/10/03 04:37:48;;;;;;;1.67;0.30;;;14.80;99.90;;;;;;5020242;28;20052;-68
2021/10/03 04:40:14;;;;;;;3.22;0.30;;;14.80;99.90;;;;;;5029783;28;20164;-68
2021/10/03 04:42:40;;;;;;;1.42;0.20;;;14.80;99.90;;;;;;5027715;28;20073;-68
2021/10/03 04:45:06;;;;;;;2.75;0.20;;;14.70;99.90;;;;;;5022914;28;20041;-68
2021/10/03 04:47:32;;;;;;;1.48;0.30;;;14.70;99.90;;;;;;5034665;28;20510;-68
2021/10/03 04:49:59;;;;;;;1.00;0.20;;;14.70;99.90;;;;;;5030276;28;20044;-68
2021/10/03 04:52:25;;;;;;;1.05;0.30;;;14.70;99.90;;;;;;5047359;28;20329;-68
2021/10/03 04:54:52;;;;;;;1.40;0.30;;;14.60;99.90;;;;;;5038112;28;20041;-68
2021/10/03 04:57:18;;;;;;;3.03;0.30;;;14.70;99.90;;;;;;5032204;28;20045;-68
2021/10/03 04:59:44;;;;;;;3.75;0.40;;;14.70;99.90;;;;;;5030949;28;20044;-68
2021/10/03 05:02:09;;;;;;;0.47;0.20;;;14.60;99.90;;;;;;5043657;28;20467;-68
2021/10/03 05:04:35;;;;;;;1.35;0.30;;;14.60;99.90;;;;;;5039382;28;20092;-68
2021/10/03 05:07:01;;;;;;;1.40;0.20;;;14.60;99.90;;;;;;5037477;28;20139;-68
2021/10/03 05:09:26;;;;;;;2.22;0.30;;;14.60;99.90;;;;;;5054573;28;20133;-68
2021/10/03 05:11:52;;;;;;;3.72;0.70;;;14.60;99.90;;;;;;5039100;28;20056;-69
2021/10/03 05:14:18;;;;;;;3.90;0.50;;;14.60;99.90;;;;;;5018643;28;20048;-68
2021/10/03 05:17:15;;;;;;;2.25;0.40;;;14.60;99.90;;;;;;5038870;28;20566;-68
2021/10/03 05:19:40;;;;;;;1.38;0.40;;;14.50;99.90;;;;;;5021398;28;20083;-68
2021/10/03 05:22:06;;;;;;;1.67;0.35;;;14.50;99.90;;;;;;5038607;28;20041;-68
2021/10/03 05:24:32;;;;;;;2.72;0.77;;;14.50;99.90;;;;;;5023247;28;20117;-68
2021/10/03 05:26:59;;;;;;;1.58;0.40;;;14.50;99.90;;;;;;5043046;28;20033;-68
2021/10/03 05:29:25;;;;;;;2.10;0.38;;;14.50;99.90;;;;;;5021167;28;20041;-68
2021/10/03 05:31:50;;;;;;;1.75;0.30;;;14.50;99.90;;;;;;5023741;28;20130;-68
2021/10/03 05:34:19;;;;;;;1.92;0.30;;;14.50;99.90;;;;;;5038851;28;20044;-68
2021/10/03 05:36:45;;;;;;;1.80;0.40;;;14.50;99.90;;;;;;5045219;28;20037;-68
2021/10/03 05:39:10;;;;;;;3.28;0.30;;;14.50;99.90;;;;;;5021307;28;20203;-68
2021/10/03 05:41:36;;;;;;;2.53;0.70;;;14.50;99.90;;;;;;5040482;28;20041;-68
2021/10/03 05:44:04;;;;;;;1.92;0.47;;;14.50;99.90;;;;;;5033564;28;20029;-68
2021/10/03 05:46:30;;;;;;;2.03;0.60;;;14.50;99.90;;;;;;5024031;28;20053;-69
2021/10/03 05:48:56;;;;;;;2.65;0.35;;;14.50;99.90;;;;;;5021427;28;20761;-68
2021/10/03 05:51:21;;;;;;;5.10;0.73;;;14.50;99.90;;;;;;5042155;28;20048;-68
2021/10/03 05:53:48;;;;;;;1.77;0.20;;;14.50;99.90;;;;;;5031520;28;20084;-68
2021/10/03 05:56:14;;;;;;;1.63;0.20;;;14.40;99.90;;;;;;5019417;28;20047;-68
2021/10/03 05:58:40;;;;;;;3.70;0.75;;;14.30;99.90;;;;;;5009769;28;20436;-69
2021/10/03 06:01:06;;;;;;;1.83;0.38;;;14.30;99.90;;;;;;5023593;28;20120;-69
2021/10/03 06:03:32;;;;;;;1.63;0.20;;;14.30;99.90;;;;;;5035631;28;20044;-68
2021/10/03 06:05:57;;;;;;;2.30;0.40;;;14.30;99.90;;;;;;5026434;28;20120;-68
2021/10/03 06:08:23;;;;;;;1.02;0.20;;;14.30;99.90;;;;;;5040580;28;20082;-69
2021/10/03 06:10:49;;;;;;;1.30;0.15;;;14.30;99.90;;;;;;5039522;28;20073;-68
2021/10/03 06:13:14;;;;;;;1.80;0.20;;;14.30;99.90;;;;;;5019368;28;20095;-69
2021/10/03 06:15:43;;;;;;;0.63;0.20;;;14.20;99.90;;;;;;5026868;28;20502;-68
2021/10/03 06:18:17;;;;;;;9.05;0.30;;;14.20;99.90;;;;;;5020161;28;20044;-69
2021/10/03 06:20:46;;;;;;;0.70;0.20;;;14.20;99.90;;;;;;5039489;28;20118;-68
2021/10/03 06:23:15;;;;;;;3.20;0.20;;;14.20;99.90;;;;;;5039748;28;20040;-69
2021/10/03 06:25:42;;;;;;;0.85;0.20;;;14.20;99.90;;;;;;5042147;28;20038;-69
2021/10/03 06:28:08;;;;;;;2.20;0.30;;;14.20;99.90;;;;;;5037737;28;20131;-69
2021/10/03 06:30:35;;;;;;;4.30;0.40;;;14.10;99.90;;;;;;5020851;28;20127;-68
2021/10/03 06:33:04;;;;;;;1.98;0.20;;;14.10;99.90;;;;;;5016996;28;20042;-69
2021/10/03 06:35:31;;;;;;;0.82;0.30;;;14.10;99.90;;;;;;5022624;28;20123;-69
2021/10/03 06:37:58;;;;;;;0.28;0.22;;;14.10;99.90;;;;;;5025808;28;20033;-69
2021/10/03 06:40:24;;;;;;;1.25;0.20;;;14.10;99.90;;;;;;5035529;28;20049;-69
2021/10/03 06:42:50;;;;;;;1.63;0.15;;;14.10;99.90;;;;;;5039812;28;20041;-68
2021/10/03 06:45:16;;;;;;;2.97;0.20;;;14.10;99.90;;;;;;5022983;28;20052;-68
2021/10/03 06:47:41;;;;;;;0.28;0.10;;;14.10;99.90;;;;;;5026498;28;20068;-69
2021/10/03 06:50:07;;;;;;;1.00;0.20;;;14.10;99.90;;;;;;5043200;28;20032;-69
2021/10/03 06:52:34;;;;;;;1.17;0.43;;;14.10;99.90;;;;;;5032411;28;20045;-69
2021/10/03 06:54:59;;;;;;;2.45;0.20;;;14.10;99.90;;;;;;5027932;28;20045;-68
2021/10/03 06:57:25;;;;;;;0.45;0.17;;;14.10;99.90;;;;;;5031371;28;20048;-69
2021/10/03 06:59:50;;;;;;;1.70;0.20;;;14.10;99.90;;;;;;5026261;28;20106;-69
2021/10/03 07:02:21;;;;;;;1.65;0.20;;;14.00;99.90;;;;;;5030924;28;20044;-69
2021/10/03 07:04:48;;;;;;;2.35;0.35;;;14.10;99.90;;;;;;5043048;28;20051;-68
2021/10/03 07:07:14;;;;;;;1.08;0.40;;;14.10;99.90;;;;;;5034911;28;20056;-69
2021/10/03 07:09:40;;;;;;;2.78;0.38;;;14.10;99.90;;;;;;5043266;28;20052;-68
2021/10/03 07:12:06;;;;;;;0.90;0.22;;;14.10;99.90;;;;;;5042659;28;20041;-69
2021/10/03 07:14:32;;;;;;;0.98;0.30;;;14.00;99.90;;;;;;5046856;28;20045;-69
2021/10/03 07:16:59;;;;;;;1.63;0.57;;;14.00;99.90;;;;;;5041989;28;20053;-69
2021/10/03 07:19:25;;;;;;;2.15;0.30;;;14.00;99.90;;;;;;5024432;28;20077;-69
2021/10/03 07:21:53;;;;;;;1.63;0.17;;;14.10;99.90;;;;;;5021733;28;20044;-69
2021/10/03 07:24:20;;;;;;;2.17;0.10;;;14.00;99.90;;;;;;5030287;28;20400;-69
2021/10/03 07:26:46;;;;;;;1.15;0.20;;;14.00;99.90;;;;;;5032099;28;20981;-69
2021/10/03 07:29:11;;;;;;;0.70;0.25;;;14.00;99.90;;;;;;5022310;28;20072;-68
2021/10/03 07:31:40;;;;;;;2.22;0.30;;;14.10;99.90;;;;;;5026795;28;20041;-68
2021/10/03 07:34:06;;;;;;;1.23;0.20;;;14.10;99.90;;;;;;5023216;28;20507;-70
2021/10/03 07:36:31;;;;;;;0.65;0.20;;;14.00;99.90;;;;;;5024990;28;20133;-69
2021/10/03 07:38:57;;;;;;;2.60;0.20;;;14.00;99.90;;;;;;5038423;28;20151;-69
2021/10/03 07:41:23;;;;;;;0.65;0.10;;;14.10;99.90;;;;;;5023954;28;20406;-69
2021/10/03 07:43:49;;;;;;;0.70;0.20;;;14.10;99.90;;;;;;5047484;28;20041;-69
2021/10/03 07:46:17;;;;;;;1.27;0.20;;;14.10;99.90;;;;;;5018884;28;20052;-69
2021/10/03 07:48:43;;;;;;;0.57;0.20;;;14.10;99.90;;;;;;5049391;28;20386;-69
2021/10/03 07:51:10;;;;;;;0.70;0.25;;;14.10;99.90;;;;;;5026884;28;20091;-69
2021/10/03 07:53:37;;;;;;;0.45;0.20;;;14.10;99.90;;;;;;5046599;28;20486;-69
2021/10/03 07:56:04;;;;;;;0.25;0.10;;;14.10;99.90;;;;;;5033141;28;20045;-70
2021/10/03 07:58:29;;;;;;;0.70;0.25;;;14.10;99.90;;;;;;5029361;28;20095;-69
2021/10/03 08:00:55;;;;;;;0.60;0.15;;;14.10;99.90;;;;;;5049348;28;20427;-69
2021/10/03 08:03:21;;;;;;;0.73;0.20;;;14.20;99.90;;;;;;5044735;28;20044;-69
2021/10/03 08:05:47;;;;;;;0.52;0.10;;;14.10;99.90;;;;;;5029755;28;20048;-69
2021/10/03 08:08:13;;;;;;;2.50;0.10;;;14.10;99.90;;;;;;5048254;28;20053;-69
2021/10/03 08:10:40;;;;;;;2.72;0.20;;;14.20;99.90;;;;;;5048560;28;20128;-69
2021/10/03 08:13:06;;;;;;;0.30;0.10;;;14.20;99.90;;;;;;5026405;28;20037;-69
2021/10/03 08:15:34;;;;;;;0.25;0.10;;;14.20;99.90;;;;;;5042530;28;20037;-69
2021/10/03 08:17:59;;;;;;;0.10;0.10;;;14.20;99.90;;;;;;5039023;28;20041;-69
2021/10/03 08:20:25;;;;;;;0.40;0.10;;;14.20;99.90;;;;;;5031594;28;20094;-69
2021/10/03 08:22:52;;;;;;;1.15;0.10;;;14.10;99.90;;;;;;5043605;28;20038;-69
2021/10/03 08:25:18;;;;;;;0.20;0.10;;;14.20;99.90;;;;;;5052324;28;20131;-69
2021/10/03 08:27:48;;;;;;;0.82;0.10;;;14.20;99.90;;;;;;5031805;28;20467;-69
2021/10/03 08:30:14;;;;;;;0.50;0.10;;;14.20;99.90;;;;;;5027970;28;20040;-69
2021/10/03 08:32:40;;;;;;;0.45;0.20;;;14.20;99.90;;;;;;5025329;28;20578;-69
2021/10/03 08:35:08;;;;;;;0.10;0.10;;;14.20;99.90;;;;;;5041305;28;20033;-69
2021/10/03 08:37:34;;;;;;;0.65;0.08;;;14.20;99.90;;;;;;5041269;28;20391;-69
2021/10/03 08:40:00;;;;;;;1.73;0.10;;;14.30;99.90;;;;;;5021468;28;20114;-69
2021/10/03 08:42:27;;;;;;;3.42;0.73;;;14.30;99.90;;;;;;5044510;28;20073;-69
2021/10/03 08:44:53;;;;;;;2.53;0.15;;;14.30;99.90;;;;;;5016759;28;20045;-69
2021/10/03 08:47:18;;;;;;;5.00;0.20;;;14.20;99.90;;;;;;5019200;28;20051;-69
2021/10/03 08:49:44;;;;;;;0.47;0.10;;;14.20;99.90;;;;;;5027627;28;20460;-69
2021/10/03 08:52:10;;;;;;;2.90;0.20;;;14.10;99.90;;;;;;5024413;28;20045;-68
2021/10/03 08:54:38;;;;;;;3.75;0.20;;;14.10;99.90;;;;;;5025828;28;20045;-69
2021/10/03 08:57:07;;;;;;;2.80;0.50;;;14.00;99.90;;;;;;5022260;28;20045;-69
2021/10/03 08:59:33;;;;;;;1.77;0.30;;;13.90;99.90;;;;;;5042228;28;20080;-69
2021/10/03 09:02:03;;;;;;;2.15;0.30;;;13.90;99.90;;;;;;5022146;28;20833;-69
2021/10/03 09:04:32;;;;;;;4.60;0.25;;;13.90;99.90;;;;;;5041958;28;20127;-69
2021/10/03 09:07:10;;;;;;;2.35;0.20;;;13.80;99.90;;;;;;5026641;28;20590;-69
2021/10/03 09:09:56;;;;;;;6.95;0.75;;;13.80;99.90;;;;;;5041157;28;20404;-69
2021/10/03 09:12:27;;;;;;;4.65;0.20;;;13.90;99.90;;;;;;5026767;28;20196;-69
2021/10/03 09:14:54;;;;;;;0.85;0.20;;;13.80;99.90;;;;;;5041512;28;20091;-69
2021/10/03 09:17:21;;;;;;;1.98;0.30;;;13.90;99.90;;;;;;5024657;28;20049;-69
2021/10/03 09:20:31;;;;;;;1.75;0.60;;;13.80;99.90;;;;;;5045160;28;20071;-68
2021/10/03 09:23:11;;;;;;;1.85;0.20;;;13.80;99.90;;;;;;5041160;28;20049;-69
2021/10/03 09:25:49;;;;;;;1.70;0.30;;;13.80;99.90;;;;;;5046680;28;20041;-69
2021/10/03 09:28:24;;;;;;;1.15;0.28;;;13.80;99.90;;;;;;5025359;28;20045;-69
2021/10/03 09:31:08;;;;;;;2.50;0.20;;;13.80;99.90;;;;;;5020453;28;20479;-69
2021/10/03 09:33:44;;;;;;;4.28;0.20;;;13.80;99.90;;;;;;5029894;28;20487;-69
2021/10/03 09:36:12;;;;;;;1.58;0.20;;;13.80;99.90;;;;;;5038434;28;20049;-69
2021/10/03 09:38:59;;;;;;;1.10;0.10;;;13.80;99.90;;;;;;5037612;28;20049;-69
2021/10/03 09:41:32;;;;;;;7.88;0.32;;;13.80;99.90;;;;;;5024194;28;20041;-69
2021/10/03 09:44:06;;;;;;;2.75;0.28;;;13.80;99.90;;;;;;5022747;28;20820;-69
2021/10/03 09:46:37;;;;;;;1.52;0.43;;;13.80;99.90;;;;;;5035591;28;20106;-69
2021/10/03 09:49:06;;;;;;;3.33;0.30;;;13.70;99.90;;;;;;5039035;28;20101;-69
2021/10/03 09:51:38;;;;;;;5.00;0.57;;;13.80;99.90;;;;;;5044231;28;20511;-69
2021/10/03 09:54:07;;;;;;;1.83;0.50;;;13.80;99.90;;;;;;5024939;28;20045;-68
2021/10/03 09:56:37;;;;;;;5.70;0.32;;;13.70;99.90;;;;;;5023831;28;20044;-69
2021/10/03 09:59:05;;;;;;;1.92;0.20;;;13.80;99.90;;;;;;5043888;28;20059;-69
2021/10/03 10:01:44;;;;;;;2.40;0.20;;;13.80;99.90;;;;;;5040182;28;20040;-69
2021/10/03 10:04:14;;;;;;;1.13;0.20;;;13.80;99.90;;;;;;5024537;28;20048;-69
2021/10/03 10:06:43;;;;;;;2.67;0.28;;;13.80;99.90;;;;;;5042878;28;20124;-68
2021/10/03 10:09:16;;;;;;;1.75;0.10;;;13.80;99.90;;;;;;5049956;28;20033;-69
2021/10/03 10:11:55;;;;;;;1.90;0.20;;;13.80;99.90;;;;;;5028299;28;20072;-69
2021/10/03 10:14:34;;;;;;;2.03;0.20;;;13.80;99.90;;;;;;5023657;28;20037;-69
2021/10/03 10:17:29;;;;;;;1.95;0.17;;;13.80;99.90;;;;;;5047960;28;20076;-69
2021/10/03 10:19:56;;;;;;;1.80;0.10;;;13.80;99.90;;;;;;5038292;28;20483;-69
2021/10/03 10:22:22;;;;;;;2.50;0.15;;;13.80;99.90;;;;;;5028889;28;20293;-69
2021/10/03 10:24:57;;;;;;;4.03;0.25;;;13.70;99.90;;;;;;5050773;28;20052;-68
2021/10/03 10:27:29;;;;;;;1.63;0.10;;;13.80;99.90;;;;;;5026017;28;20056;-69
2021/10/03 10:30:17;;;;;;;1.05;0.10;;;13.80;99.90;;;;;;5049101;28;20037;-69
2021/10/03 10:33:01;;;;;;;2.47;0.90;;;13.70;99.90;;;;;;5039277;28;20344;-69
2021/10/03 10:35:29;;;;;;;1.75;0.30;;;13.80;99.90;;;;;;5043928;28;20786;-69
2021/10/03 10:37:59;;;;;;;1.63;0.20;;;13.70;99.90;;;;;;5041919;28;20080;-69
2021/10/03 10:40:25;;;;;;;1.77;0.50;;;13.80;99.90;;;;;;5021123;28;20045;-69
2021/10/03 10:43:19;;;;;;;1.40;0.30;;;13.80;99.90;;;;;;5006471;28;20049;-69
2021/10/03 10:45:46;;;;;;;1.20;0.22;;;13.70;99.90;;;;;;5053489;28;20041;-69
2021/10/03 10:48:18;;;;;;;0.60;0.20;;;13.70;99.90;;;;;;5033797;28;20481;-68
2021/10/03 10:50:44;;;;;;;1.95;0.20;;;13.70;99.90;;;;;;5042573;28;20037;-69
2021/10/03 10:53:22;;;;;;;0.85;0.10;;;13.70;99.90;;;;;;5042321;28;20041;-69
2021/10/03 10:56:10;;;;;;;1.50;0.17;;;13.70;99.90;;;;;;5040858;28;20597;-69
2021/10/03 10:58:58;;;;;;;1.33;0.10;;;13.70;99.90;;;;;;5041004;28;20085;-69
2021/10/03 11:01:41;;;;;;;0.70;0.15;;;13.60;99.90;;;;;;5027802;28;20041;-69
2021/10/03 11:04:19;;;;;;;3.35;0.68;;;13.70;99.90;;;;;;5048225;28;20053;-69
2021/10/03 11:06:44;;;;;;;1.10;0.10;;;13.60;99.90;;;;;;5041721;28;20132;-69
2021/10/03 11:09:13;;;;;;;1.38;0.10;;;13.60;99.90;;;;;;5025886;28;20432;-69
2021/10/03 11:12:07;;;;;;;1.55;0.20;;;13.60;99.90;;;;;;5044636;28;20440;-69
2021/10/03 11:14:34;;;;;;;1.23;0.20;;;13.70;99.90;;;;;;5039257;28;20053;-69
2021/10/03 11:17:04;;;;;;;1.88;0.20;;;13.70;99.90;;;;;;5027907;28;20060;-69
2021/10/03 11:19:45;;;;;;;2.45;0.70;;;13.70;99.90;;;;;;5047850;28;20053;-69
2021/10/03 11:22:18;;;;;;;1.00;0.20;;;13.70;99.90;;;;;;5024075;28;20057;-69
2021/10/03 11:24:53;;;;;;;1.83;0.30;;;13.80;99.90;;;;;;5048828;28;20419;-69
2021/10/03 11:27:31;;;;;;;2.55;0.88;;;13.80;99.90;;;;;;5027248;28;20052;-69
2021/10/03 11:30:00;;;;;;;2.15;0.93;;;13.80;99.90;;;;;;5025550;28;20171;-69
2021/10/03 11:32:28;;;;;;;1.80;0.50;;;13.90;99.90;;;;;;5043721;28;20033;-69
2021/10/03 11:34:57;;;;;;;1.33;0.20;;;13.90;99.90;;;;;;5047878;28;20112;-69
2021/10/03 11:37:39;;;;;;;0.40;0.10;;;13.90;99.90;;;;;;5029514;28;20044;-69
2021/10/03 11:40:12;;;;;;;1.42;0.20;;;13.90;99.90;;;;;;5048988;28;20041;-69
2021/10/03 11:42:44;;;;;;;0.98;0.20;;;14.00;99.90;;;;;;5031457;28;20048;-69
2021/10/03 11:45:23;;;;;;;2.38;0.30;;;14.00;99.90;;;;;;5045608;28;20037;-69
2021/10/03 11:47:52;;;;;;;0.57;0.10;;;14.00;99.90;;;;;;5045329;28;20107;-69
2021/10/03 11:50:23;;;;;;;0.68;0.20;;;14.00;99.90;;;;;;5028737;28;20041;-69
2021/10/03 11:52:55;;;;;;;1.67;0.25;;;14.00;99.90;;;;;;5031994;28;20074;-68
2021/10/03 11:55:32;;;;;;;1.98;0.20;;;14.00;99.90;;;;;;5028002;28;20040;-69
2021/10/03 11:58:03;;;;;;;4.53;0.30;;;13.90;99.90;;;;;;5034994;28;20633;-68
2021/10/03 12:00:29;;;;;;;1.02;0.10;;;13.90;99.90;;;;;;5046567;28;20048;-69
2021/10/03 12:03:05;;;;;;;2.40;0.20;;;13.90;99.90;;;;;;5030624;28;20383;-68
2021/10/03 12:05:32;;;;;;;2.67;0.43;;;13.90;99.90;;;;;;5048772;28;20048;-69
2021/10/03 12:08:09;;;;;;;1.00;0.17;;;13.90;99.90;;;;;;5059805;28;20044;-69
2021/10/03 12:10:42;;;;;;;1.58;0.10;;;13.90;99.90;;;;;;5028526;28;20166;-69
2021/10/03 12:13:46;;;;;;;2.55;0.32;;;13.90;99.90;;;;;;5031608;28;20655;-69
2021/10/03 12:16:17;;;;;;;0.73;0.20;;;14.00;99.90;;;;;;5046029;28;20102;-69
2021/10/03 12:19:00;;;;;;;0.77;0.20;;;13.90;99.90;;;;;;5022523;28;20143;-69
2021/10/03 12:21:25;;;;;;;1.23;0.10;;;14.00;99.90;;;;;;5023066;28;20048;-69
2021/10/03 12:24:01;;;;;;;2.75;0.10;;;13.90;99.90;;;;;;5048438;28;20045;-69
2021/10/03 12:26:28;;;;;;;4.88;0.10;;;13.90;99.90;;;;;;5046198;28;20106;-69
2021/10/03 12:29:05;;;;;;;0.73;0.10;;;13.90;99.90;;;;;;5042066;28;20033;-69
2021/10/03 12:31:52;;;;;;;0.65;0.10;;;13.90;99.90;;;;;;5018264;28;20055;-69
2021/10/03 12:34:21;;;;;;;1.73;0.22;;;14.00;99.90;;;;;;5026562;28;20076;-68
2021/10/03 12:36:49;;;;;;;1.15;0.10;;;14.10;99.90;;;;;;5046657;28;20036;-69
2021/10/03 12:39:29;;;;;;;1.02;0.45;;;14.10;99.90;;;;;;5029177;28;20049;-68
2021/10/03 12:41:57;;;;;;;2.10;0.20;;;14.20;99.90;;;;;;5047394;28;20430;-68
2021/10/03 12:44:24;;;;;;;4.20;0.15;;;14.20;99.90;;;;;;5033005;28;20107;-69
2021/10/03 12:46:50;;;;;;;1.58;0.13;;;14.30;99.90;;;;;;5051971;28;20045;-69
2021/10/03 12:49:15;;;;;;;2.67;0.30;;;14.30;99.90;;;;;;5031181;28;20044;-68
2021/10/03 12:51:41;;;;;;;0.90;0.10;;;14.30;99.90;;;;;;5027624;28;20064;-69
2021/10/03 12:54:07;;;;;;;1.15;0.15;;;14.30;99.90;;;;;;5025111;28;20150;-68
2021/10/03 12:56:33;;;;;;;1.33;0.10;;;14.30;99.90;;;;;;5050925;28;20048;-68